• Join FlightAware (Why Join?)
  • Login
  • US Flag 
04:16PM EDT


 

Airport Tracker/Info


-or-


 

Live Flight TrackerFlight Track Log ✈ JTA613 ✈ 01-Feb-2014 ✈ ROAH / OKA - ROIG / ISG

Flight Track Log - Related Links

Times and Time Zones

All times are in EST time to prevent confusion due to time zone crossing. See the JTA613 flight status page for this flight to view local times or setup timezone preferences in your user account.

Time Position Orientation Groundspeed Altitude Reporting Facility
EST Latitude Longitude Course Direction KTS MPH feet Rate Location/Type
12:34AM 26.0633 127.3896 240° Southwest  Level Estimated
12:35AM 26.0191 127.3043 240° Southwest  Level Estimated
12:36AM 25.9748 127.2190 240° Southwest  Level Estimated
12:37AM 25.9304 127.1338 240° Southwest  Level Estimated
12:38AM 25.8860 127.0487 240° Southwest  Level Estimated
12:39AM 25.8415 126.9637 240° Southwest  Level Estimated
12:40AM 25.7970 126.8787 240° Southwest  Level Estimated
12:41AM 25.7525 126.7937 240° Southwest  Level Estimated
12:42AM 25.7079 126.7089 240° Southwest  Level Estimated
12:43AM 25.6632 126.6241 240° Southwest  Level Estimated
12:44AM 25.6185 126.5394 240° Southwest  Level Estimated
12:45AM 25.5737 126.4547 240° Southwest  Level Estimated
12:46AM 25.5289 126.3701 240° Southwest  Level Estimated
12:47AM 25.4841 126.2855 240° Southwest  Level Estimated
12:48AM 25.4392 126.2011 240° Southwest  Level Estimated
12:49AM 25.3942 126.1166 239° Southwest  Level Estimated
12:50AM 25.3492 126.0323 239° Southwest  Level Estimated
12:51AM 25.3042 125.9480 239° Southwest  Level Estimated
12:52AM 25.2591 125.8638 239° Southwest  Level Estimated
12:53AM 25.2140 125.7796 239° Southwest  Level Estimated
12:54AM 25.1688 125.6955 239° Southwest  Level Estimated
12:55AM 25.1235 125.6115 239° Southwest  Level Estimated
12:56AM 25.0783 125.5275 239° Southwest  Level Estimated
12:57AM 25.0329 125.4436 239° Southwest  Level Estimated
12:58AM 24.9876 125.3597 239° Southwest  Level Estimated
12:59AM 24.9421 125.2759 239° Southwest  Level Estimated
01:00AM 24.8967 125.1922 239° Southwest  Level Estimated
01:01AM 24.8511 125.1085 239° Southwest  Level Estimated
01:02AM 24.8056 125.0249 239° Southwest  Level Estimated
01:03AM 24.7600 124.9414 239° Southwest  Level Estimated
01:04AM 24.7143 124.8579 239° Southwest  Level Estimated
01:05AM 24.6686 124.7744 239° Southwest  Level Estimated
01:06AM 24.6229 124.6911 239° Southwest  Level Estimated
01:07AM 24.5771 124.6078 239° Southwest  Level Estimated
01:08AM 24.5312 124.5245 239° Southwest  Level Estimated
01:09AM 24.4853 124.4414 239° Southwest  Level Estimated
01:10AM 24.4394 124.3582 239° Southwest  Level Estimated
01:11AM 24.3934 124.2752 239° Southwest  Level Estimated
01:12AM 24.3474 124.1922 239° Southwest  Level Estimated
01:13AM 24.3445 124.1870 239° Southwest  Level Estimated
01:14AM 24.3445 124.1870 29° Northeast  Level Estimated
01:15AM 24.3445 124.1870 29° Northeast  Level Estimated
01:16AM 24.3445 124.1870 29° Northeast  Level Estimated
01:17AM 24.3445 124.1870 29° Northeast  Level Estimated
01:18AM 24.3445 124.1870 29° Northeast  Level Estimated